createdAt,value
2022-11-09T00:02:05.599Z,10.80
2022-11-09T00:04:36.257Z,10.87
2022-11-09T00:07:07.155Z,11.08
2022-11-09T00:09:37.553Z,11.23
2022-11-09T00:12:09.270Z,11.44
2022-11-09T00:14:39.801Z,11.27
2022-11-09T00:17:10.736Z,9.96
2022-11-09T00:19:41.271Z,8.72
2022-11-09T00:22:12.479Z,8.57
2022-11-09T00:24:43.087Z,9.47
2022-11-09T00:27:17.644Z,10.06
2022-11-09T00:29:48.808Z,10.32
2022-11-09T00:32:26.643Z,10.38
2022-11-09T00:34:58.472Z,9.91
2022-11-09T00:37:30.388Z,9.89
2022-11-09T00:40:01.057Z,10.05
2022-11-09T00:42:31.695Z,10.59
2022-11-09T00:45:02.360Z,11.09
2022-11-09T00:47:33.255Z,10.59
2022-11-09T00:50:03.888Z,9.11
2022-11-09T00:52:34.720Z,9.40
2022-11-09T00:55:05.908Z,10.10
2022-11-09T00:57:36.710Z,10.44
2022-11-09T01:00:08.858Z,10.72
2022-11-09T01:02:39.499Z,11.02
2022-11-09T01:05:10.403Z,11.19
2022-11-09T01:07:40.877Z,11.33
2022-11-09T01:10:11.699Z,11.10
2022-11-09T01:12:42.534Z,9.76
2022-11-09T01:15:13.170Z,8.57
2022-11-09T01:17:43.907Z,7.92
2022-11-09T01:20:14.739Z,8.85
2022-11-09T01:22:45.770Z,9.44
2022-11-09T01:25:16.876Z,10.00
2022-11-09T01:27:47.354Z,10.61
2022-11-09T01:30:18.014Z,10.61
2022-11-09T01:32:48.614Z,9.05
2022-11-09T01:35:18.983Z,8.24
2022-11-09T01:37:49.656Z,8.94
2022-11-09T01:40:20.294Z,9.59
2022-11-09T01:42:51.170Z,10.10
2022-11-09T01:45:26.634Z,10.62
2022-11-09T01:47:59.375Z,9.73
2022-11-09T01:50:32.949Z,8.13
2022-11-09T01:53:04.817Z,7.55
2022-11-09T01:55:35.542Z,8.52
2022-11-09T01:58:07.313Z,9.55
2022-11-09T02:00:39.487Z,10.30
2022-11-09T02:03:12.348Z,10.36
2022-11-09T02:05:43.501Z,10.69
2022-11-09T02:08:15.875Z,10.86
2022-11-09T02:10:48.541Z,11.12
2022-11-09T02:13:21.066Z,10.71
2022-11-09T02:15:52.135Z,9.23
2022-11-09T02:18:23.098Z,8.81
2022-11-09T02:20:54.725Z,9.58
2022-11-09T02:23:27.121Z,10.14
2022-11-09T02:25:59.800Z,10.48
2022-11-09T02:28:32.297Z,10.87
2022-11-09T02:31:03.986Z,10.66
2022-11-09T02:33:43.445Z,9.28
2022-11-09T02:36:14.247Z,8.31
2022-11-09T02:38:45.350Z,9.12
2022-11-09T02:41:15.926Z,10.03
2022-11-09T02:43:46.519Z,10.62
2022-11-09T02:46:23.631Z,10.98
2022-11-09T02:48:54.986Z,11.13
2022-11-09T02:51:25.663Z,10.92
2022-11-09T02:53:58.171Z,9.42
2022-11-09T02:56:28.780Z,8.00
2022-11-09T02:59:00.058Z,7.99
2022-11-09T03:01:30.855Z,9.13
2022-11-09T03:04:02.151Z,10.04
2022-11-09T03:06:35.802Z,9.03
2022-11-09T03:09:11.977Z,7.82
2022-11-09T03:11:43.404Z,8.31
2022-11-09T03:14:15.881Z,8.76
2022-11-09T03:16:51.634Z,9.27
2022-11-09T03:19:23.006Z,9.59
2022-11-09T03:21:55.057Z,9.93
2022-11-09T03:24:27.822Z,9.17
2022-11-09T03:26:59.932Z,7.49
2022-11-09T03:29:31.751Z,6.67
2022-11-09T03:32:02.372Z,7.09
2022-11-09T03:34:33.217Z,7.45
2022-11-09T03:37:03.994Z,7.58
2022-11-09T03:39:35.705Z,8.03
2022-11-09T03:42:06.476Z,8.17
2022-11-09T03:44:37.174Z,8.55
2022-11-09T03:47:08.121Z,9.31
2022-11-09T03:49:38.842Z,7.87
2022-11-09T03:52:09.269Z,7.29
2022-11-09T03:54:39.900Z,7.87
2022-11-09T03:57:10.583Z,8.30
2022-11-09T03:59:41.163Z,8.72
2022-11-09T04:02:12.233Z,9.20
2022-11-09T04:04:43.034Z,9.58
2022-11-09T04:07:13.965Z,9.89
2022-11-09T04:09:44.655Z,10.18
2022-11-09T04:12:15.541Z,10.49
2022-11-09T04:14:46.032Z,10.40
2022-11-09T04:17:16.528Z,8.95
2022-11-09T04:19:47.227Z,7.92
2022-11-09T04:22:17.933Z,8.56
2022-11-09T04:24:48.800Z,9.39
2022-11-09T04:27:21.799Z,9.91
2022-11-09T04:29:52.415Z,10.25
2022-11-09T04:32:22.907Z,10.52
2022-11-09T04:34:53.889Z,10.21
2022-11-09T04:37:24.674Z,8.77
2022-11-09T04:39:55.310Z,7.85
2022-11-09T04:42:25.840Z,8.60
2022-11-09T04:44:56.714Z,9.48
2022-11-09T04:47:28.735Z,10.07
2022-11-09T04:49:59.308Z,10.44
2022-11-09T04:52:29.939Z,10.00
2022-11-09T04:55:00.463Z,8.52
2022-11-09T04:57:31.099Z,7.62
2022-11-09T05:00:01.847Z,8.47
2022-11-09T05:02:32.559Z,9.58
2022-11-09T05:05:03.394Z,8.21
2022-11-09T05:07:33.972Z,7.09
2022-11-09T05:10:04.672Z,7.88
2022-11-09T05:12:35.439Z,8.62
2022-11-09T05:15:06.403Z,8.42
2022-11-09T05:17:36.956Z,8.55
2022-11-09T05:20:08.616Z,8.50
2022-11-09T05:22:59.705Z,7.15
2022-11-09T05:25:30.362Z,6.88
2022-11-09T05:28:01.222Z,8.10
2022-11-09T05:30:31.673Z,8.34
2022-11-09T05:33:02.452Z,8.68
2022-11-09T05:35:34.256Z,7.69
2022-11-09T05:38:04.941Z,6.55
2022-11-09T05:40:35.579Z,7.03
2022-11-09T05:43:06.307Z,8.22
2022-11-09T05:45:42.747Z,8.30
2022-11-09T05:48:14.744Z,8.59
2022-11-09T05:50:45.881Z,8.97
2022-11-09T05:53:21.096Z,9.12
2022-11-09T05:55:52.232Z,9.48
2022-11-09T05:58:23.096Z,8.26
2022-11-09T06:00:53.966Z,7.21
2022-11-09T06:03:24.562Z,7.76
2022-11-09T06:05:55.211Z,8.70
2022-11-09T06:08:25.980Z,9.20
2022-11-09T06:11:01.174Z,9.47
2022-11-09T06:13:31.836Z,9.81
2022-11-09T06:16:03.917Z,10.04
2022-11-09T06:18:35.358Z,9.45
2022-11-09T06:21:06.768Z,8.13
2022-11-09T06:23:37.595Z,8.00
2022-11-09T06:26:10.004Z,8.83
2022-11-09T06:28:41.496Z,9.50
2022-11-09T06:31:13.931Z,9.54
2022-11-09T06:33:44.595Z,8.30
2022-11-09T06:36:15.149Z,7.74
2022-11-09T06:38:45.748Z,8.43
2022-11-09T06:41:16.368Z,9.29
2022-11-09T06:43:47.214Z,9.61
2022-11-09T06:46:17.885Z,9.55
2022-11-09T06:48:53.404Z,8.21
2022-11-09T06:51:25.582Z,8.01
2022-11-09T06:53:56.332Z,8.85
2022-11-09T06:56:26.868Z,9.49
2022-11-09T06:58:57.579Z,9.43
2022-11-09T07:01:29.468Z,7.99
2022-11-09T07:04:00.233Z,8.18
2022-11-09T07:06:30.955Z,8.71
2022-11-09T07:09:02.112Z,9.51
2022-11-09T07:11:32.957Z,9.65
2022-11-09T07:14:04.134Z,8.04
2022-11-09T07:16:34.923Z,7.52
2022-11-09T07:19:05.710Z,8.49
2022-11-09T07:21:36.533Z,9.08
2022-11-09T07:24:08.257Z,10.00
2022-11-09T07:26:38.818Z,9.39
2022-11-09T07:29:09.605Z,8.23
2022-11-09T07:31:40.289Z,8.72
2022-11-09T07:34:10.930Z,9.51
2022-11-09T07:36:41.666Z,10.36
2022-11-09T07:39:12.118Z,10.87
2022-11-09T07:41:42.763Z,10.08
2022-11-09T07:44:14.942Z,8.63
2022-11-09T07:46:45.649Z,8.44
2022-11-09T07:49:17.007Z,9.50
2022-11-09T07:51:47.591Z,10.19
2022-11-09T07:54:18.535Z,10.83
2022-11-09T07:56:49.057Z,11.54
2022-11-09T07:59:19.786Z,11.90
2022-11-09T08:01:50.465Z,12.15
2022-11-09T08:04:21.357Z,12.18
2022-11-09T08:06:54.745Z,11.19
2022-11-09T08:09:25.742Z,10.47
2022-11-09T08:11:56.527Z,11.27
2022-11-09T08:14:27.148Z,12.09
2022-11-09T08:16:58.089Z,12.49
2022-11-09T08:19:28.926Z,11.42
2022-11-09T08:22:00.887Z,10.76
2022-11-09T08:24:31.761Z,11.89
2022-11-09T08:27:02.362Z,12.73
2022-11-09T08:29:33.083Z,12.93
2022-11-09T08:32:03.824Z,11.84
2022-11-09T08:34:34.753Z,11.53
2022-11-09T08:37:05.851Z,12.79
2022-11-09T08:39:36.531Z,12.83
2022-11-09T08:42:07.781Z,11.86
2022-11-09T08:44:38.717Z,11.22
2022-11-09T08:47:09.448Z,12.13
2022-11-09T08:49:40.072Z,13.24
2022-11-09T08:52:10.712Z,13.65
2022-11-09T08:54:41.336Z,12.67
2022-11-09T08:57:12.175Z,11.84
2022-11-09T08:59:42.806Z,11.57
2022-11-09T09:02:14.618Z,12.69
2022-11-09T09:04:45.249Z,13.81
2022-11-09T09:07:16.306Z,14.55
2022-11-09T09:09:47.123Z,14.23
2022-11-09T09:12:18.108Z,13.31
2022-11-09T09:14:49.073Z,12.62
2022-11-09T09:17:19.778Z,12.20
2022-11-09T09:19:50.680Z,12.55
2022-11-09T09:22:21.715Z,13.97
2022-11-09T09:24:52.592Z,14.79
2022-11-09T09:27:24.053Z,14.27
2022-11-09T09:29:55.095Z,13.55
2022-11-09T09:32:26.432Z,13.33
2022-11-09T09:34:57.573Z,14.54
2022-11-09T09:37:28.211Z,15.05
2022-11-09T09:39:59.103Z,14.29
2022-11-09T09:42:33.045Z,13.64
2022-11-09T09:45:04.908Z,13.12
2022-11-09T09:47:42.157Z,12.78
2022-11-09T09:50:14.268Z,13.23
2022-11-09T09:52:59.337Z,14.45
2022-11-09T09:55:38.966Z,14.04
2022-11-09T09:58:13.204Z,13.58
2022-11-09T10:00:44.500Z,13.31
2022-11-09T10:03:18.333Z,13.39
2022-11-09T10:05:53.567Z,14.59
2022-11-09T10:08:28.244Z,14.51
2022-11-09T10:11:10.401Z,14.01
2022-11-09T10:13:56.116Z,13.65
2022-11-09T10:16:29.694Z,13.42
2022-11-09T10:19:19.975Z,13.33
2022-11-09T10:21:53.826Z,14.43
2022-11-09T10:24:30.352Z,14.51
2022-11-09T10:27:01.918Z,14.11
2022-11-09T10:29:34.913Z,13.85
2022-11-09T10:32:11.053Z,13.69
2022-11-09T10:34:46.733Z,13.58
2022-11-09T10:37:20.129Z,13.79
2022-11-09T10:39:53.764Z,15.23
2022-11-09T10:42:45.730Z,16.19
2022-11-09T10:45:36.325Z,15.58
2022-11-09T10:48:31.692Z,15.02
2022-11-09T10:51:40.839Z,14.65
2022-11-09T10:54:33.392Z,14.33
2022-11-09T10:57:24.113Z,14.11
2022-11-09T11:00:17.712Z,13.96
2022-11-09T11:03:05.453Z,13.85
2022-11-09T11:06:00.295Z,13.80
2022-11-09T11:08:50.316Z,13.76
2022-11-09T11:11:40.432Z,14.67
2022-11-09T11:14:34.160Z,16.00
2022-11-09T11:17:25.605Z,15.66
2022-11-09T11:20:26.987Z,15.16
2022-11-09T11:23:17.546Z,14.80
2022-11-09T11:26:21.025Z,14.59
2022-11-09T11:29:14.761Z,14.46
2022-11-09T11:32:04.610Z,14.37
2022-11-09T11:35:00.329Z,14.32
2022-11-09T11:37:56.286Z,14.32
2022-11-09T11:40:51.888Z,14.34
2022-11-09T11:43:47.350Z,14.38
2022-11-09T11:46:41.195Z,14.42
2022-11-09T11:49:41.490Z,14.44
2022-11-09T11:52:36.248Z,14.48
2022-11-09T11:55:33.960Z,14.53
2022-11-09T11:58:30.910Z,14.58
2022-11-09T12:01:28.251Z,14.63
2022-11-09T12:04:40.834Z,14.68
2022-11-09T12:07:35.633Z,14.72
2022-11-09T12:10:31.592Z,14.77
2022-11-09T12:13:27.192Z,14.83
2022-11-09T12:16:21.262Z,14.89
2022-11-09T12:19:27.131Z,14.95
2022-11-09T12:22:24.673Z,15.00
2022-11-09T12:25:17.630Z,14.98
2022-11-09T12:28:16.130Z,14.97
2022-11-09T12:31:12.415Z,14.95
2022-11-09T12:34:04.184Z,14.97
2022-11-09T12:36:56.136Z,14.97
2022-11-09T12:39:47.288Z,14.99
2022-11-09T12:42:38.622Z,15.02
2022-11-09T12:45:29.442Z,15.04
2022-11-09T12:48:22.180Z,15.06
2022-11-09T12:51:11.816Z,15.07
2022-11-09T12:54:02.631Z,15.06
2022-11-09T12:56:53.260Z,15.07
2022-11-09T12:59:50.172Z,15.07
2022-11-09T13:02:40.819Z,15.09
2022-11-09T13:05:31.926Z,15.11
2022-11-09T13:08:29.536Z,15.15
2022-11-09T13:11:23.289Z,15.15
2022-11-09T13:14:30.741Z,15.19
2022-11-09T13:17:42.821Z,15.28
2022-11-09T13:20:58.662Z,15.57
2022-11-09T13:24:06.956Z,16.48
2022-11-09T13:26:59.708Z,17.51
2022-11-09T13:29:56.561Z,18.40
2022-11-09T13:33:14.141Z,19.17
2022-11-09T13:36:22.594Z,19.82
2022-11-09T13:39:32.367Z,20.24
2022-11-09T13:42:27.344Z,20.46
2022-11-09T13:45:26.027Z,20.57
2022-11-09T13:48:31.583Z,20.72
2022-11-09T13:51:22.222Z,20.89
2022-11-09T13:54:25.166Z,21.07
2022-11-09T13:57:14.133Z,21.16
2022-11-09T14:00:04.225Z,21.11
2022-11-09T14:03:01.102Z,20.91
2022-11-09T14:05:52.477Z,20.55
2022-11-09T14:08:43.563Z,20.15
2022-11-09T14:11:41.967Z,19.66
2022-11-09T14:14:47.211Z,19.20
2022-11-09T14:17:39.248Z,18.69
2022-11-09T14:20:32.494Z,18.25
2022-11-09T14:23:22.690Z,17.87
2022-11-09T14:26:17.743Z,17.53
2022-11-09T14:29:21.304Z,17.19
2022-11-09T14:32:23.792Z,16.88
2022-11-09T14:35:14.126Z,16.57
2022-11-09T14:38:04.323Z,16.30
2022-11-09T14:40:54.607Z,16.05
2022-11-09T14:43:44.941Z,15.81
2022-11-09T14:46:34.368Z,15.57
2022-11-09T14:49:24.712Z,15.34
2022-11-09T14:52:17.694Z,15.11
2022-11-09T14:55:07.335Z,14.88
2022-11-09T14:57:57.491Z,14.67
2022-11-09T15:00:47.036Z,14.46
2022-11-09T15:03:36.591Z,14.25
2022-11-09T15:06:25.535Z,14.05
2022-11-09T15:09:18.796Z,13.89
2022-11-09T15:12:14.431Z,13.71
2022-11-09T15:15:05.629Z,13.54
2022-11-09T15:17:55.280Z,13.38
2022-11-09T15:20:44.626Z,13.23
2022-11-09T15:23:39.235Z,13.09
2022-11-09T15:26:34.114Z,12.97
2022-11-09T15:29:38.453Z,13.25
2022-11-09T15:32:27.852Z,14.98
2022-11-09T15:35:19.268Z,16.20
2022-11-09T15:38:28.730Z,16.55
2022-11-09T15:41:20.129Z,15.53
2022-11-09T15:44:09.423Z,14.76
2022-11-09T15:46:59.077Z,14.12
2022-11-09T15:49:48.799Z,13.62
2022-11-09T15:52:37.911Z,13.26
2022-11-09T15:55:27.390Z,12.99
2022-11-09T15:58:17.436Z,13.14
2022-11-09T16:01:07.086Z,14.63
2022-11-09T16:03:56.421Z,15.80
2022-11-09T16:06:46.946Z,16.17
2022-11-09T16:09:39.705Z,15.22
2022-11-09T16:12:29.245Z,14.28
2022-11-09T16:15:19.161Z,13.63
2022-11-09T16:18:08.693Z,13.46
2022-11-09T16:20:58.781Z,14.74
2022-11-09T16:23:48.303Z,15.89
2022-11-09T16:26:37.130Z,15.61
2022-11-09T16:29:27.886Z,14.44
2022-11-09T16:32:16.990Z,13.59
2022-11-09T16:35:25.974Z,13.38
2022-11-09T16:38:16.712Z,14.68
2022-11-09T16:41:06.390Z,15.61
2022-11-09T16:43:55.904Z,15.21
2022-11-09T16:46:46.475Z,13.93
2022-11-09T16:49:35.980Z,12.95
2022-11-09T16:52:26.241Z,12.99
2022-11-09T16:55:15.686Z,14.30
2022-11-09T16:58:05.071Z,15.18
2022-11-09T17:01:12.531Z,15.40
2022-11-09T17:04:03.292Z,14.22
2022-11-09T17:06:53.022Z,13.24
2022-11-09T17:09:42.879Z,12.84
2022-11-09T17:12:32.257Z,13.99
2022-11-09T17:15:21.836Z,14.95
2022-11-09T17:18:11.197Z,15.46
2022-11-09T17:21:00.812Z,15.31
2022-11-09T17:23:50.032Z,14.11
2022-11-09T17:26:39.354Z,12.99
2022-11-09T17:29:28.711Z,13.07
2022-11-09T17:32:18.817Z,14.20
2022-11-09T17:35:08.685Z,14.46
2022-11-09T17:37:58.665Z,13.43
2022-11-09T17:40:47.933Z,13.34
2022-11-09T17:43:38.337Z,14.29
2022-11-09T17:46:27.633Z,14.94
2022-11-09T17:49:17.298Z,14.81
2022-11-09T17:52:07.470Z,13.49
2022-11-09T17:54:56.932Z,12.55
2022-11-09T17:57:45.857Z,13.31
2022-11-09T18:00:35.095Z,14.22
2022-11-09T18:03:26.060Z,14.88
2022-11-09T18:06:16.358Z,14.37
2022-11-09T18:12:16.600Z,12.43
2022-11-09T18:15:06.426Z,13.55
2022-11-09T18:17:55.818Z,14.38
2022-11-09T18:20:44.716Z,14.78
2022-11-09T18:23:34.395Z,14.92
2022-11-09T18:26:23.192Z,14.85
2022-11-09T18:29:13.028Z,13.61
2022-11-09T18:32:02.196Z,12.50
2022-11-09T18:34:52.287Z,12.57
2022-11-09T18:37:45.751Z,13.59
2022-11-09T18:40:35.349Z,14.23
2022-11-09T18:43:24.690Z,14.81
2022-11-09T18:46:15.191Z,13.60
2022-11-09T18:49:08.891Z,12.45
2022-11-09T18:52:01.098Z,13.18
2022-11-09T18:54:50.905Z,13.95
2022-11-09T18:57:40.468Z,14.46
2022-11-09T19:00:30.026Z,14.82
2022-11-09T19:03:20.256Z,14.63
2022-11-09T19:06:12.720Z,13.26
2022-11-09T19:09:31.113Z,12.14
2022-11-09T19:12:20.632Z,12.04
2022-11-09T19:15:10.711Z,13.30
2022-11-09T19:17:59.931Z,14.14
2022-11-09T19:20:49.724Z,14.60
2022-11-09T19:23:40.565Z,13.88
2022-11-09T19:26:30.051Z,12.27
2022-11-09T19:29:20.183Z,11.64
2022-11-09T19:32:10.254Z,12.62
2022-11-09T19:34:59.634Z,13.38
2022-11-09T19:37:49.037Z,13.69
2022-11-09T19:40:40.025Z,14.02
2022-11-09T19:43:29.246Z,14.43
2022-11-09T19:46:18.757Z,14.17
2022-11-09T19:49:09.410Z,12.39
2022-11-09T19:51:59.230Z,11.61
2022-11-09T19:54:48.509Z,12.62
2022-11-09T19:57:37.716Z,13.42
2022-11-09T20:00:26.608Z,13.88
2022-11-09T20:03:15.791Z,14.27
2022-11-09T20:06:05.711Z,14.15
2022-11-09T20:08:55.504Z,14.34
2022-11-09T20:12:02.332Z,14.54
2022-11-09T20:14:51.233Z,13.20
2022-11-09T20:17:40.463Z,11.88
2022-11-09T20:20:29.580Z,12.10
2022-11-09T20:23:21.774Z,12.99
2022-11-09T20:26:12.053Z,13.40
2022-11-09T20:29:01.534Z,13.77
2022-11-09T20:31:50.794Z,14.13
2022-11-09T20:34:40.815Z,13.87
2022-11-09T20:37:30.166Z,12.35
2022-11-09T20:40:19.370Z,12.30
2022-11-09T20:43:08.634Z,12.91
2022-11-09T20:46:03.681Z,13.56
2022-11-09T20:48:54.965Z,13.42
2022-11-09T20:51:44.979Z,13.59
2022-11-09T20:54:34.112Z,13.33
2022-11-09T20:57:23.446Z,11.91
2022-11-09T21:00:14.258Z,11.24
2022-11-09T21:03:03.776Z,12.24
2022-11-09T21:05:59.162Z,12.94
2022-11-09T21:08:50.130Z,13.33
2022-11-09T21:12:00.675Z,13.66
2022-11-09T21:14:50.213Z,12.44
2022-11-09T21:17:39.213Z,11.74
2022-11-09T21:20:28.934Z,12.29
2022-11-09T21:23:35.581Z,12.62
2022-11-09T21:26:42.436Z,12.97
2022-11-09T21:29:48.678Z,13.15
2022-11-09T21:32:38.163Z,13.34
2022-11-09T21:35:27.089Z,13.57
2022-11-09T21:38:16.993Z,13.77
2022-11-09T21:41:21.136Z,13.13
2022-11-09T21:44:11.638Z,11.62
2022-11-09T21:47:01.224Z,10.54
2022-11-09T21:49:51.065Z,10.30
2022-11-09T21:52:40.316Z,11.59
2022-11-09T21:55:29.611Z,12.55
2022-11-09T21:58:19.002Z,12.52
2022-11-09T22:01:09.782Z,12.60
2022-11-09T22:03:58.719Z,12.84
2022-11-09T22:06:48.152Z,13.01
2022-11-09T22:10:05.949Z,13.07
2022-11-09T22:13:04.757Z,12.50
2022-11-09T22:16:09.900Z,10.85
2022-11-09T22:19:16.775Z,10.05
2022-11-09T22:22:06.155Z,11.17
2022-11-09T22:24:55.275Z,11.96
2022-11-09T22:27:44.381Z,12.37
2022-11-09T22:30:34.054Z,12.32
2022-11-09T22:33:27.289Z,10.97
2022-11-09T22:36:18.175Z,9.77
2022-11-09T22:39:08.206Z,10.22
2022-11-09T22:41:56.965Z,11.34
2022-11-09T22:44:47.261Z,12.06
2022-11-09T22:47:36.217Z,12.50
2022-11-09T22:50:26.342Z,12.70
2022-11-09T22:53:15.360Z,12.51
2022-11-09T22:56:05.753Z,11.01
2022-11-09T22:58:55.046Z,10.03
2022-11-09T23:01:44.760Z,10.75
2022-11-09T23:04:33.879Z,11.59
2022-11-09T23:07:23.743Z,11.72
2022-11-09T23:10:12.929Z,11.65
2022-11-09T23:13:02.628Z,11.76
2022-11-09T23:15:56.262Z,11.90
2022-11-09T23:18:57.550Z,12.02
2022-11-09T23:21:46.520Z,12.17
2022-11-09T23:24:53.461Z,11.16
2022-11-09T23:27:42.771Z,9.63
2022-11-09T23:30:31.712Z,10.28
2022-11-09T23:33:20.899Z,11.41
2022-11-09T23:36:11.366Z,11.74
2022-11-09T23:39:00.298Z,11.81
2022-11-09T23:41:49.874Z,12.21
2022-11-09T23:44:38.652Z,12.17
2022-11-09T23:47:27.952Z,12.17
2022-11-09T23:50:16.883Z,12.08
2022-11-09T23:53:06.226Z,11.92
2022-11-09T23:55:55.554Z,12.12
2022-11-09T23:58:47.920Z,12.07
